createdAt,value
2022-12-15T00:02:36.475Z,-4.83
2022-12-15T00:05:21.729Z,-4.91
2022-12-15T00:08:06.935Z,-5.14
2022-12-15T00:10:52.256Z,-4.82
2022-12-15T00:13:37.431Z,-5.03
2022-12-15T00:16:23.286Z,-5.04
2022-12-15T00:19:09.658Z,-5.22
2022-12-15T00:21:54.824Z,-5.31
2022-12-15T00:24:40.168Z,-5.16
2022-12-15T00:27:24.962Z,-5.09
2022-12-15T00:30:10.151Z,-5.27
2022-12-15T00:32:54.976Z,-5.48
2022-12-15T00:35:41.451Z,-5.58
2022-12-15T00:38:27.350Z,-5.56
2022-12-15T00:40:58.992Z,-5.26
2022-12-15T00:43:26.860Z,-5.21
2022-12-15T00:46:12.036Z,-5.37
2022-12-15T00:48:39.723Z,-5.40
2022-12-15T00:51:07.935Z,-5.51
2022-12-15T00:53:52.961Z,-5.37
2022-12-15T00:56:38.259Z,-5.42
2022-12-15T00:59:23.409Z,-5.31
2022-12-15T01:02:08.807Z,-5.37
2022-12-15T01:04:53.911Z,-5.48
2022-12-15T01:07:40.564Z,-5.33
2022-12-15T01:10:25.843Z,-5.54
2022-12-15T01:13:11.025Z,-5.73
2022-12-15T01:15:56.423Z,-5.76
2022-12-15T01:18:42.264Z,-5.84
2022-12-15T01:21:11.827Z,-5.81
2022-12-15T01:23:42.955Z,-5.83
2022-12-15T01:26:10.449Z,-5.97
2022-12-15T01:28:37.968Z,-6.14
2022-12-15T01:31:11.494Z,-6.14
2022-12-15T01:33:42.445Z,-6.25
2022-12-15T01:36:10.983Z,-6.26
2022-12-15T01:38:39.770Z,-6.06
2022-12-15T01:41:10.245Z,-6.07
2022-12-15T01:43:39.934Z,-5.81
2022-12-15T01:46:09.234Z,-5.81
2022-12-15T01:48:42.862Z,-5.57
2022-12-15T01:51:18.606Z,-5.49
2022-12-15T01:53:54.456Z,-5.16
2022-12-15T01:56:24.272Z,-5.36
2022-12-15T01:58:54.328Z,-5.33
2022-12-15T02:01:22.158Z,-5.23
2022-12-15T02:03:49.934Z,-5.17
2022-12-15T02:06:21.485Z,-4.86
2022-12-15T02:08:52.766Z,-4.71
2022-12-15T02:11:47.293Z,-4.62
2022-12-15T02:14:21.926Z,-4.55
2022-12-15T02:17:04.526Z,-4.50
2022-12-15T02:19:51.424Z,-4.41
2022-12-15T02:22:32.601Z,-4.43
2022-12-15T02:25:34.806Z,-4.36
2022-12-15T02:28:05.792Z,-4.49
2022-12-15T02:30:42.568Z,-4.51
2022-12-15T02:33:21.034Z,-4.55
2022-12-15T02:35:57.932Z,-4.55
2022-12-15T02:38:31.003Z,-4.44
2022-12-15T02:40:59.908Z,-4.45
2022-12-15T02:43:29.861Z,-4.59
2022-12-15T02:46:12.506Z,-4.69
2022-12-15T02:48:52.583Z,-4.79
2022-12-15T02:51:34.912Z,-4.85
2022-12-15T02:54:30.714Z,-4.66
2022-12-15T02:57:06.433Z,-4.98
2022-12-15T02:59:42.938Z,-4.88
2022-12-15T03:02:14.957Z,-4.90
2022-12-15T03:04:45.419Z,-5.07
2022-12-15T03:07:14.763Z,-5.06
2022-12-15T03:09:42.306Z,-5.04
2022-12-15T03:12:10.422Z,-5.25
2022-12-15T03:14:37.915Z,-5.27
2022-12-15T03:17:07.444Z,-5.37
2022-12-15T03:19:36.236Z,-5.36
2022-12-15T03:22:04.211Z,-5.28
2022-12-15T03:24:31.821Z,-5.15
2022-12-15T03:26:59.549Z,-4.95
2022-12-15T03:29:27.036Z,-4.90
2022-12-15T03:31:54.578Z,-4.80
2022-12-15T03:34:22.190Z,-4.70
2022-12-15T03:36:51.144Z,-4.83
2022-12-15T03:39:18.647Z,-4.92
2022-12-15T03:41:46.118Z,-4.86
2022-12-15T03:44:13.878Z,-4.75
2022-12-15T03:46:41.485Z,-4.74
2022-12-15T03:49:08.927Z,-4.80
2022-12-15T03:51:36.536Z,-4.92
2022-12-15T03:54:05.359Z,-4.79
2022-12-15T03:56:33.320Z,-4.72
2022-12-15T03:59:00.802Z,-4.83
2022-12-15T04:01:30.075Z,-4.82
2022-12-15T04:04:00.932Z,-4.77
2022-12-15T04:06:29.117Z,-4.81
2022-12-15T04:08:56.583Z,-4.90
2022-12-15T04:11:25.442Z,-4.92
2022-12-15T04:13:52.918Z,-4.98
2022-12-15T04:16:20.720Z,-5.09
2022-12-15T04:19:08.834Z,-4.90
2022-12-15T04:21:35.371Z,-4.94
2022-12-15T04:24:20.358Z,-5.04
2022-12-15T04:27:06.977Z,-5.08
2022-12-15T04:29:52.178Z,-5.03
2022-12-15T04:32:37.523Z,-4.88
2022-12-15T04:35:23.347Z,-5.11
2022-12-15T04:38:08.504Z,-5.23
2022-12-15T04:40:53.794Z,-5.21
2022-12-15T04:43:40.283Z,-5.37
2022-12-15T04:46:25.618Z,-5.43
2022-12-15T04:49:10.686Z,-5.52
2022-12-15T04:51:55.933Z,-5.53
2022-12-15T04:54:41.388Z,-5.53
2022-12-15T04:57:26.570Z,-5.70
2022-12-15T05:00:13.180Z,-5.89
2022-12-15T05:02:57.952Z,-5.56
2022-12-15T05:05:42.779Z,-5.55
2022-12-15T05:08:28.151Z,-5.72
2022-12-15T05:11:13.266Z,-5.88
2022-12-15T05:13:58.081Z,-5.99
2022-12-15T05:16:44.711Z,-5.94
2022-12-15T05:19:29.822Z,-6.10
2022-12-15T05:22:15.137Z,-5.83
2022-12-15T05:25:00.389Z,-5.72
2022-12-15T05:27:45.185Z,-5.82
2022-12-15T05:30:30.309Z,-5.74
2022-12-15T05:32:59.152Z,-5.76
2022-12-15T05:35:26.594Z,-5.77
2022-12-15T05:37:54.058Z,-5.79
2022-12-15T05:40:21.518Z,-5.80
2022-12-15T05:42:50.103Z,-5.80
2022-12-15T05:45:18.015Z,-6.03
2022-12-15T05:47:45.489Z,-6.08
2022-12-15T05:50:14.274Z,-6.00
2022-12-15T05:52:46.198Z,-5.92
2022-12-15T05:55:16.778Z,-6.13
2022-12-15T05:57:44.382Z,-6.37
2022-12-15T06:00:12.585Z,-6.48
2022-12-15T06:02:40.204Z,-6.70
2022-12-15T06:05:09.045Z,-6.72
2022-12-15T06:07:38.380Z,-6.39
2022-12-15T06:10:06.614Z,-6.51
2022-12-15T06:12:34.167Z,-6.57
2022-12-15T06:15:01.630Z,-6.65
2022-12-15T06:17:29.103Z,-6.53
2022-12-15T06:19:56.568Z,-6.55
2022-12-15T06:22:24.158Z,-6.53
2022-12-15T06:24:52.953Z,-6.59
2022-12-15T06:27:20.571Z,-6.59
2022-12-15T06:29:48.086Z,-6.62
2022-12-15T06:32:15.604Z,-6.51
2022-12-15T06:34:43.092Z,-6.55
2022-12-15T06:37:10.543Z,-6.51
2022-12-15T06:39:38.017Z,-6.53
2022-12-15T06:42:06.992Z,-6.53
2022-12-15T06:44:34.476Z,-6.54
2022-12-15T06:47:01.986Z,-6.44
2022-12-15T06:49:29.478Z,-6.22
2022-12-15T06:51:56.925Z,-6.40
2022-12-15T06:54:24.754Z,-6.25
2022-12-15T06:56:52.888Z,-6.41
2022-12-15T06:59:21.728Z,-6.36
2022-12-15T07:01:49.455Z,-6.35
2022-12-15T07:04:16.975Z,-6.39
2022-12-15T07:06:45.245Z,-6.30
2022-12-15T07:09:13.942Z,-6.33
2022-12-15T07:11:41.412Z,-6.19
2022-12-15T07:14:10.277Z,-6.33
2022-12-15T07:16:39.110Z,-6.41
2022-12-15T07:19:06.667Z,-6.39
2022-12-15T07:21:33.998Z,-6.33
2022-12-15T07:24:02.440Z,-6.20
2022-12-15T07:26:30.354Z,-6.09
2022-12-15T07:28:57.703Z,-6.16
2022-12-15T07:31:25.137Z,-6.14
2022-12-15T07:33:54.609Z,-6.00
2022-12-15T07:36:22.271Z,-5.97
2022-12-15T07:38:50.540Z,-6.04
2022-12-15T07:41:19.836Z,-6.03
2022-12-15T07:43:47.678Z,-6.03
2022-12-15T07:46:15.331Z,-5.89
2022-12-15T07:48:42.952Z,-5.89
2022-12-15T07:51:19.025Z,-5.82
2022-12-15T07:53:46.904Z,-5.73
2022-12-15T07:56:15.281Z,-5.60
2022-12-15T07:58:42.865Z,-5.79
2022-12-15T08:01:12.221Z,-5.83
2022-12-15T08:03:40.652Z,-5.96
2022-12-15T08:06:09.918Z,-5.73
2022-12-15T08:08:38.697Z,-5.68
2022-12-15T08:11:06.158Z,-5.71
2022-12-15T08:14:05.035Z,-5.55
2022-12-15T08:16:21.420Z,-5.61
2022-12-15T08:18:49.265Z,-5.64
2022-12-15T08:21:17.052Z,-5.63
2022-12-15T08:23:45.837Z,-5.72
2022-12-15T08:26:15.008Z,-5.74
2022-12-15T08:28:42.961Z,-5.77
2022-12-15T08:31:11.899Z,-5.69
2022-12-15T08:33:39.284Z,-5.64
2022-12-15T08:36:08.138Z,-5.52
2022-12-15T08:38:36.008Z,-5.54
2022-12-15T08:41:09.473Z,-5.50
2022-12-15T08:43:41.176Z,-5.50
2022-12-15T08:46:14.079Z,-5.40
2022-12-15T08:48:41.511Z,-5.34
2022-12-15T08:51:09.859Z,-5.47
2022-12-15T08:53:38.610Z,-5.33
2022-12-15T08:56:06.969Z,-5.32
2022-12-15T08:58:35.782Z,-5.21
2022-12-15T09:01:03.577Z,-4.96
2022-12-15T09:03:31.552Z,-4.87
2022-12-15T09:06:02.401Z,-4.68
2022-12-15T09:08:30.899Z,-4.58
2022-12-15T09:10:58.381Z,-4.50
2022-12-15T09:13:25.734Z,-4.25
2022-12-15T09:16:09.297Z,-4.30
2022-12-15T09:18:37.489Z,-4.22
2022-12-15T09:21:05.694Z,-4.14
2022-12-15T09:23:33.787Z,-4.01
2022-12-15T09:26:01.699Z,-4.16
2022-12-15T09:28:29.316Z,-4.20
2022-12-15T09:31:04.326Z,-4.28
2022-12-15T09:33:32.279Z,-4.22
2022-12-15T09:35:59.899Z,-4.14
2022-12-15T09:38:27.267Z,-4.13
2022-12-15T09:40:54.674Z,-4.17
2022-12-15T09:43:44.799Z,-4.08
2022-12-15T09:46:19.626Z,-3.85
2022-12-15T09:48:48.415Z,-3.73
2022-12-15T09:51:17.741Z,-3.65
2022-12-15T09:53:54.810Z,-3.57
2022-12-15T09:56:28.419Z,-3.59
2022-12-15T09:59:02.263Z,-3.61
2022-12-15T10:01:37.611Z,-3.66
2022-12-15T10:04:08.128Z,-3.70
2022-12-15T10:06:36.992Z,-3.74
2022-12-15T10:09:10.259Z,-3.85
2022-12-15T10:11:50.559Z,-3.69
2022-12-15T10:14:22.472Z,-3.51
2022-12-15T10:17:00.349Z,-3.25
2022-12-15T10:19:30.951Z,-2.96
2022-12-15T10:21:58.514Z,-2.80
2022-12-15T10:27:26.964Z,-2.33
2022-12-15T10:29:58.835Z,-2.19
2022-12-15T10:32:35.433Z,-1.89
2022-12-15T10:35:08.657Z,-1.67
2022-12-15T10:37:36.389Z,-1.58
2022-12-15T10:40:03.901Z,-1.75
2022-12-15T10:42:31.316Z,-1.62
2022-12-15T10:45:00.000Z,-1.54
2022-12-15T10:47:29.240Z,-1.67
2022-12-15T10:49:58.871Z,-1.47
2022-12-15T10:52:28.527Z,-1.51
2022-12-15T10:54:56.767Z,-1.31
2022-12-15T10:57:27.651Z,-1.08
2022-12-15T10:59:55.611Z,-0.95
2022-12-15T11:02:36.644Z,-0.97
2022-12-15T11:05:05.725Z,-0.98
2022-12-15T11:07:35.539Z,-1.15
2022-12-15T11:10:09.323Z,-1.05
2022-12-15T11:12:51.868Z,-1.01
2022-12-15T11:15:43.554Z,-0.86
2022-12-15T11:18:16.721Z,-0.89
2022-12-15T11:20:48.661Z,-0.93
2022-12-15T11:23:20.391Z,-1.01
2022-12-15T11:25:50.204Z,-1.03
2022-12-15T11:28:21.831Z,-0.90
2022-12-15T11:30:53.158Z,-0.99
2022-12-15T11:33:23.075Z,-0.81
2022-12-15T11:35:59.199Z,-0.84
2022-12-15T11:38:32.790Z,-0.75
2022-12-15T11:41:06.924Z,-0.61
2022-12-15T11:43:51.155Z,-0.59
2022-12-15T11:46:22.718Z,-0.60
2022-12-15T11:49:00.127Z,-0.56
2022-12-15T11:51:33.666Z,-0.68
2022-12-15T11:54:10.643Z,-0.69
2022-12-15T11:56:40.152Z,-0.63
2022-12-15T11:59:31.681Z,-0.58
2022-12-15T12:02:05.260Z,-0.48
2022-12-15T12:04:38.924Z,-0.56
2022-12-15T12:07:09.500Z,-0.58
2022-12-15T12:09:37.820Z,-0.68
2022-12-15T12:12:12.974Z,-0.89
2022-12-15T12:14:50.399Z,-0.96
2022-12-15T12:17:21.788Z,-1.26
2022-12-15T12:19:52.829Z,-1.29
2022-12-15T12:22:23.029Z,-1.50
2022-12-15T12:24:53.343Z,-1.63
2022-12-15T12:27:26.999Z,-1.74
2022-12-15T12:29:58.451Z,-1.71
2022-12-15T12:32:30.094Z,-1.50
2022-12-15T12:35:31.139Z,-1.39
2022-12-15T12:37:52.427Z,-1.37
2022-12-15T12:40:23.138Z,-1.38
2022-12-15T12:42:54.228Z,-1.39
2022-12-15T12:45:22.931Z,-1.41
2022-12-15T12:47:53.012Z,-1.37
2022-12-15T12:50:23.285Z,-1.40
2022-12-15T12:52:52.431Z,-1.35
2022-12-15T12:55:26.192Z,-1.42
2022-12-15T12:57:54.420Z,-1.39
2022-12-15T13:00:23.337Z,-1.23
2022-12-15T13:03:09.900Z,-1.15
2022-12-15T13:05:39.471Z,-1.03
2022-12-15T13:08:26.894Z,-1.05
2022-12-15T13:10:54.474Z,-1.03
2022-12-15T13:13:48.511Z,-1.03
2022-12-15T13:16:20.739Z,-1.11
2022-12-15T13:18:58.230Z,-1.13
2022-12-15T13:21:45.117Z,-1.19
2022-12-15T13:24:23.564Z,-1.13
2022-12-15T13:26:50.907Z,-1.14
2022-12-15T13:29:20.669Z,-1.17
2022-12-15T13:31:49.425Z,-1.22
2022-12-15T13:34:27.120Z,-1.30
2022-12-15T13:36:59.415Z,-1.33
2022-12-15T13:39:35.887Z,-1.26
2022-12-15T13:45:31.022Z,-1.38
2022-12-15T13:47:58.389Z,-1.44
2022-12-15T13:50:40.366Z,-1.45
2022-12-15T13:53:19.215Z,-1.55
2022-12-15T13:55:53.153Z,-1.50
2022-12-15T13:58:22.603Z,-1.60
2022-12-15T14:00:51.751Z,-1.69
2022-12-15T14:03:19.548Z,-1.66
2022-12-15T14:05:51.259Z,-1.77
2022-12-15T14:08:20.153Z,-1.77
2022-12-15T14:10:49.179Z,-1.79
2022-12-15T14:13:22.205Z,-1.89
2022-12-15T14:15:51.266Z,-1.95
2022-12-15T14:18:26.570Z,-2.00
2022-12-15T14:20:54.059Z,-2.11
2022-12-15T14:23:22.479Z,-2.21
2022-12-15T14:25:57.307Z,-2.29
2022-12-15T14:28:31.612Z,-2.44
2022-12-15T14:31:02.779Z,-2.46
2022-12-15T14:33:32.638Z,-2.57
2022-12-15T14:36:01.492Z,-2.59
2022-12-15T14:38:32.256Z,-2.68
2022-12-15T14:41:01.814Z,-2.69
2022-12-15T14:43:33.229Z,-2.79
2022-12-15T14:46:07.526Z,-2.77
2022-12-15T14:51:24.965Z,-2.92
2022-12-15T14:53:53.440Z,-2.97
2022-12-15T14:56:30.066Z,-3.04
2022-12-15T14:59:03.443Z,-3.12
2022-12-15T15:01:31.748Z,-3.20
2022-12-15T15:03:12.380Z,-2.46
2022-12-15T15:03:13.202Z,-1.29
2022-12-15T15:03:14.538Z,-2.88
2022-12-15T15:04:03.758Z,-3.25
2022-12-15T15:06:35.942Z,-3.31
2022-12-15T15:09:17.613Z,-3.17
2022-12-15T15:11:45.046Z,-3.19
2022-12-15T15:14:15.521Z,-3.19
2022-12-15T15:16:43.321Z,-3.23
2022-12-15T15:19:17.767Z,-3.26
2022-12-15T15:21:46.660Z,-3.32
2022-12-15T15:24:24.824Z,-3.47
2022-12-15T15:26:52.498Z,-3.58
2022-12-15T15:29:34.385Z,-3.64
2022-12-15T15:32:05.984Z,-3.79
2022-12-15T15:34:33.286Z,-3.90
2022-12-15T15:37:02.277Z,-3.94
2022-12-15T15:39:29.668Z,-3.97
2022-12-15T15:41:57.084Z,-4.08
2022-12-15T15:44:24.387Z,-4.11
2022-12-15T15:46:53.836Z,-4.13
2022-12-15T15:49:23.352Z,-4.17
2022-12-15T15:51:50.743Z,-4.25
2022-12-15T15:54:21.672Z,-4.01
2022-12-15T15:56:49.004Z,-4.21
2022-12-15T15:59:17.258Z,-4.36
2022-12-15T16:01:45.134Z,-4.39
2022-12-15T16:04:14.422Z,-4.49
2022-12-15T16:06:47.052Z,-4.48
2022-12-15T16:09:15.671Z,-4.60
2022-12-15T16:11:43.470Z,-4.46
2022-12-15T16:14:12.072Z,-4.43
2022-12-15T16:16:39.752Z,-4.39
2022-12-15T16:19:07.156Z,-4.28
2022-12-15T16:21:36.391Z,-4.35
2022-12-15T16:24:06.977Z,-4.51
2022-12-15T16:26:35.659Z,-4.23
2022-12-15T16:29:02.956Z,-4.09
2022-12-15T16:31:37.113Z,-3.91
2022-12-15T16:34:08.202Z,-3.83
2022-12-15T16:36:37.043Z,-3.84
2022-12-15T16:39:04.991Z,-3.87
2022-12-15T16:41:33.892Z,-4.08
2022-12-15T16:44:01.589Z,-4.20
2022-12-15T16:46:28.968Z,-3.77
2022-12-15T16:48:56.372Z,-3.51
2022-12-15T16:51:28.093Z,-3.30
2022-12-15T16:53:56.750Z,-3.19
2022-12-15T16:56:25.348Z,-3.08
2022-12-15T16:58:57.450Z,-3.03
2022-12-15T17:01:40.074Z,-3.13
2022-12-15T17:04:11.824Z,-2.96
2022-12-15T17:06:39.630Z,-3.00
2022-12-15T17:09:09.190Z,-2.98
2022-12-15T17:11:36.560Z,-3.06
2022-12-15T17:14:03.916Z,-2.87
2022-12-15T17:16:31.375Z,-2.90
2022-12-15T17:18:59.438Z,-2.98
2022-12-15T17:21:28.455Z,-3.07
2022-12-15T17:23:57.043Z,-2.97
2022-12-15T17:26:29.505Z,-2.96
2022-12-15T17:28:58.422Z,-3.14
2022-12-15T17:31:31.542Z,-3.09
2022-12-15T17:34:02.427Z,-3.01
2022-12-15T17:36:29.807Z,-3.29
2022-12-15T17:38:58.050Z,-3.19
2022-12-15T17:41:57.963Z,-3.34
2022-12-15T17:44:36.121Z,-3.22
2022-12-15T17:47:06.458Z,-3.30
2022-12-15T17:49:36.524Z,-3.13
2022-12-15T17:52:06.474Z,-3.13
2022-12-15T17:54:34.630Z,-3.15
2022-12-15T17:57:03.295Z,-3.19
2022-12-15T17:59:32.176Z,-3.63
2022-12-15T18:01:59.894Z,-3.51
2022-12-15T18:04:27.376Z,-3.88
2022-12-15T18:07:01.221Z,-3.90
2022-12-15T18:09:29.630Z,-3.65
2022-12-15T18:11:56.977Z,-3.59
2022-12-15T18:14:25.622Z,-3.64
2022-12-15T18:16:52.937Z,-3.53
2022-12-15T18:19:20.341Z,-3.42
2022-12-15T18:21:47.670Z,-3.46
2022-12-15T18:24:16.942Z,-3.53
2022-12-15T18:26:44.282Z,-3.52
2022-12-15T18:29:12.812Z,-3.43
2022-12-15T18:31:42.681Z,-3.42
2022-12-15T18:34:12.721Z,-3.34
2022-12-15T18:36:40.222Z,-3.24
2022-12-15T18:39:16.347Z,-3.22
2022-12-15T18:41:43.755Z,-3.24
2022-12-15T18:44:14.953Z,-3.28
2022-12-15T18:46:47.906Z,-3.32
2022-12-15T18:49:15.764Z,-3.35
2022-12-15T18:51:43.251Z,-3.38
2022-12-15T18:54:15.843Z,-3.60
2022-12-15T18:56:43.222Z,-3.73
2022-12-15T18:59:15.386Z,-3.47
2022-12-15T19:01:45.734Z,-3.35
2022-12-15T19:04:13.209Z,-3.22
2022-12-15T19:06:41.012Z,-3.54
2022-12-15T19:09:13.849Z,-3.38
2022-12-15T19:12:01.284Z,-3.51
2022-12-15T19:14:43.717Z,-3.59
2022-12-15T19:17:36.307Z,-3.88
2022-12-15T19:20:22.019Z,-3.60
2022-12-15T19:22:49.586Z,-3.52
2022-12-15T19:25:25.024Z,-3.30
2022-12-15T19:27:58.274Z,-3.21
2022-12-15T19:30:27.011Z,-3.15
2022-12-15T19:32:56.033Z,-3.18
2022-12-15T19:35:24.631Z,-3.09
2022-12-15T19:37:54.855Z,-3.05
2022-12-15T19:40:23.696Z,-3.25
2022-12-15T19:42:52.877Z,-3.16
2022-12-15T19:45:24.063Z,-3.10
2022-12-15T19:47:51.535Z,-3.07
2022-12-15T19:50:22.373Z,-3.06
2022-12-15T19:52:52.104Z,-3.05
2022-12-15T19:55:21.110Z,-3.18
2022-12-15T19:57:48.407Z,-3.20
2022-12-15T20:00:16.905Z,-3.08
2022-12-15T20:02:44.474Z,-3.21
2022-12-15T20:05:11.875Z,-3.42
2022-12-15T20:07:40.867Z,-3.52
2022-12-15T20:10:15.820Z,-3.52
2022-12-15T20:12:46.699Z,-3.70
2022-12-15T20:15:15.707Z,-3.79
2022-12-15T20:17:43.125Z,-3.70
2022-12-15T20:20:13.535Z,-3.93
2022-12-15T20:22:42.216Z,-3.71
2022-12-15T20:25:15.309Z,-3.83
2022-12-15T20:27:42.667Z,-3.92
2022-12-15T20:30:17.182Z,-3.91
2022-12-15T20:32:44.543Z,-3.71
2022-12-15T20:35:14.031Z,-3.64
2022-12-15T20:37:42.705Z,-3.71
2022-12-15T20:40:15.861Z,-3.70
2022-12-15T20:42:43.170Z,-3.48
2022-12-15T20:45:13.332Z,-3.47
2022-12-15T20:47:41.411Z,-3.37
2022-12-15T20:50:22.200Z,-3.31
2022-12-15T20:52:51.018Z,-3.38
2022-12-15T20:55:19.258Z,-3.41
2022-12-15T20:57:46.555Z,-3.46
2022-12-15T21:00:14.514Z,-3.47
2022-12-15T21:02:43.350Z,-3.55
2022-12-15T21:05:15.532Z,-3.44
2022-12-15T21:07:42.872Z,-3.57
2022-12-15T21:10:12.530Z,-3.68
2022-12-15T21:12:41.754Z,-3.68
2022-12-15T21:15:14.692Z,-3.73
2022-12-15T21:17:42.683Z,-3.75
2022-12-15T21:20:10.496Z,-3.82
2022-12-15T21:22:37.936Z,-3.53
2022-12-15T21:25:08.178Z,-3.80
2022-12-15T21:27:36.960Z,-3.54
2022-12-15T21:30:07.436Z,-3.29
2022-12-15T21:32:35.000Z,-3.43
2022-12-15T21:35:02.376Z,-3.45
2022-12-15T21:37:30.189Z,-3.53
2022-12-15T21:39:59.339Z,-3.53
2022-12-15T21:42:27.124Z,-3.45
2022-12-15T21:44:55.760Z,-3.35
2022-12-15T21:47:24.733Z,-3.34
2022-12-15T21:49:51.135Z,-3.29
2022-12-15T21:52:20.391Z,-3.42
2022-12-15T21:54:48.712Z,-3.45
2022-12-15T21:57:16.035Z,-3.41
2022-12-15T21:59:43.458Z,-3.43
2022-12-15T22:02:25.734Z,-3.33
2022-12-15T22:04:54.931Z,-3.46
2022-12-15T22:07:22.532Z,-3.34
2022-12-15T22:09:49.857Z,-3.45
2022-12-15T22:12:20.450Z,-3.49
2022-12-15T22:14:48.049Z,-3.49
2022-12-15T22:17:17.297Z,-3.45
2022-12-15T22:19:46.247Z,-3.29
2022-12-15T22:22:14.075Z,-3.13
2022-12-15T22:24:41.561Z,-3.36
2022-12-15T22:27:17.560Z,-3.31
2022-12-15T22:29:44.887Z,-3.20
2022-12-15T22:32:13.584Z,-3.20
2022-12-15T22:34:40.916Z,-3.27
2022-12-15T22:37:09.589Z,-3.08
2022-12-15T22:39:36.882Z,-3.28
2022-12-15T22:42:05.002Z,-3.17
2022-12-15T22:44:33.705Z,-3.12
2022-12-15T22:47:02.325Z,-3.30
2022-12-15T22:49:30.926Z,-3.43
2022-12-15T22:51:58.343Z,-3.21
2022-12-15T22:54:27.711Z,-3.28
2022-12-15T22:56:56.451Z,-3.34
2022-12-15T22:59:26.872Z,-3.27
2022-12-15T23:01:54.329Z,-3.24
2022-12-15T23:04:22.162Z,-3.03
2022-12-15T23:06:49.535Z,-3.15
2022-12-15T23:09:19.077Z,-3.14
2022-12-15T23:11:46.849Z,-3.25
2022-12-15T23:14:15.583Z,-3.12
2022-12-15T23:16:42.702Z,-3.19
2022-12-15T23:19:23.384Z,-3.25
2022-12-15T23:21:50.759Z,-3.29
2022-12-15T23:24:19.095Z,-3.54
2022-12-15T23:26:47.734Z,-3.48
2022-12-15T23:29:15.099Z,-3.45
2022-12-15T23:31:43.095Z,-3.26
2022-12-15T23:34:10.450Z,-3.22
2022-12-15T23:36:37.763Z,-3.20
2022-12-15T23:39:05.204Z,-3.04
2022-12-15T23:41:32.975Z,-3.00
2022-12-15T23:44:01.627Z,-2.95
2022-12-15T23:46:29.053Z,-3.02
2022-12-15T23:48:56.407Z,-3.06
2022-12-15T23:51:23.727Z,-3.06
2022-12-15T23:53:51.171Z,-3.12
2022-12-15T23:56:23.512Z,-3.19
2022-12-15T23:58:55.632Z,-3.21
